sensor_id;sensor_type;location;lat;lon;timestamp;temperature;humidity
54168;DHT22;40072;50.958;3.592;2023-02-26T00:00:00;0.60;99.90
54168;DHT22;40072;50.958;3.592;2023-02-26T00:02:26;0.50;99.90
54168;DHT22;40072;50.958;3.592;2023-02-26T00:04:51;0.60;99.90
54168;DHT22;40072;50.958;3.592;2023-02-26T00:07:17;0.60;99.90
54168;DHT22;40072;50.958;3.592;2023-02-26T00:09:42;0.40;99.90
54168;DHT22;40072;50.958;3.592;2023-02-26T00:12:10;0.50;99.90
54168;DHT22;40072;50.958;3.592;2023-02-26T00:14:37;0.50;99.90
54168;DHT22;40072;50.958;3.592;2023-02-26T00:17:08;0.50;99.90
54168;DHT22;40072;50.958;3.592;2023-02-26T00:19:37;0.60;99.90
54168;DHT22;40072;50.958;3.592;2023-02-26T00:22:03;0.60;99.90
54168;DHT22;40072;50.958;3.592;2023-02-26T00:24:29;0.60;99.90
54168;DHT22;40072;50.958;3.592;2023-02-26T00:26:55;0.70;99.90
54168;DHT22;40072;50.958;3.592;2023-02-26T00:29:21;0.60;99.90
54168;DHT22;40072;50.958;3.592;2023-02-26T00:31:46;0.70;99.90
54168;DHT22;40072;50.958;3.592;2023-02-26T00:34:12;0.80;99.90
54168;DHT22;40072;50.958;3.592;2023-02-26T00:42:06;0.80;99.90
54168;DHT22;40072;50.958;3.592;2023-02-26T00:44:32;0.70;99.90
54168;DHT22;40072;50.958;3.592;2023-02-26T00:47:09;0.70;99.90
54168;DHT22;40072;50.958;3.592;2023-02-26T00:55:12;0.60;99.90
54168;DHT22;40072;50.958;3.592;2023-02-26T00:57:38;0.60;99.90
54168;DHT22;40072;50.958;3.592;2023-02-26T01:00:04;0.70;99.90
54168;DHT22;40072;50.958;3.592;2023-02-26T01:02:34;0.60;99.90
54168;DHT22;40072;50.958;3.592;2023-02-26T01:05:00;0.60;99.90
54168;DHT22;40072;50.958;3.592;2023-02-26T01:07:27;0.60;99.90
54168;DHT22;40072;50.958;3.592;2023-02-26T01:09:54;0.50;99.90
54168;DHT22;40072;50.958;3.592;2023-02-26T01:12:20;0.50;99.90
54168;DHT22;40072;50.958;3.592;2023-02-26T01:14:46;0.50;99.90
54168;DHT22;40072;50.958;3.592;2023-02-26T01:17:34;0.50;99.90
54168;DHT22;40072;50.958;3.592;2023-02-26T01:25:01;0.50;99.90
54168;DHT22;40072;50.958;3.592;2023-02-26T01:27:27;0.50;99.90
54168;DHT22;40072;50.958;3.592;2023-02-26T01:29:53;0.60;99.90
54168;DHT22;40072;50.958;3.592;2023-02-26T01:32:44;0.60;99.90
54168;DHT22;40072;50.958;3.592;2023-02-26T01:40:28;0.50;99.90
54168;DHT22;40072;50.958;3.592;2023-02-26T01:43:16;0.50;99.90
54168;DHT22;40072;50.958;3.592;2023-02-26T01:45:59;0.60;99.90
54168;DHT22;40072;50.958;3.592;2023-02-26T01:48:53;0.80;99.90
54168;DHT22;40072;50.958;3.592;2023-02-26T01:51:42;0.80;99.90
54168;DHT22;40072;50.958;3.592;2023-02-26T01:54:08;1.00;99.90
54168;DHT22;40072;50.958;3.592;2023-02-26T01:56:34;1.20;99.90
54168;DHT22;40072;50.958;3.592;2023-02-26T01:59:01;1.50;99.90
54168;DHT22;40072;50.958;3.592;2023-02-26T02:01:31;1.70;99.90
54168;DHT22;40072;50.958;3.592;2023-02-26T02:03:57;1.80;99.90
54168;DHT22;40072;50.958;3.592;2023-02-26T02:06:25;2.00;99.90
54168;DHT22;40072;50.958;3.592;2023-02-26T02:08:52;2.10;99.90
54168;DHT22;40072;50.958;3.592;2023-02-26T02:11:18;2.20;99.90
54168;DHT22;40072;50.958;3.592;2023-02-26T02:25:24;2.90;99.90
54168;DHT22;40072;50.958;3.592;2023-02-26T02:27:21;2.80;99.90
54168;DHT22;40072;50.958;3.592;2023-02-26T02:30:18;2.80;99.90
54168;DHT22;40072;50.958;3.592;2023-02-26T02:32:58;2.80;99.90
54168;DHT22;40072;50.958;3.592;2023-02-26T02:35:29;3.00;99.90
54168;DHT22;40072;50.958;3.592;2023-02-26T02:38:38;3.10;99.90
54168;DHT22;40072;50.958;3.592;2023-02-26T02:41:12;3.20;99.90
54168;DHT22;40072;50.958;3.592;2023-02-26T02:43:41;3.10;99.90
54168;DHT22;40072;50.958;3.592;2023-02-26T02:46:12;3.30;99.90
54168;DHT22;40072;50.958;3.592;2023-02-26T02:48:59;3.60;99.90
54168;DHT22;40072;50.958;3.592;2023-02-26T02:51:32;3.70;99.90
54168;DHT22;40072;50.958;3.592;2023-02-26T02:54:32;3.50;99.90
54168;DHT22;40072;50.958;3.592;2023-02-26T02:57:05;3.60;99.90
54168;DHT22;40072;50.958;3.592;2023-02-26T02:59:48;3.50;99.90
54168;DHT22;40072;50.958;3.592;2023-02-26T03:02:25;3.60;99.90
54168;DHT22;40072;50.958;3.592;2023-02-26T03:04:53;3.70;99.90
54168;DHT22;40072;50.958;3.592;2023-02-26T03:07:18;3.70;99.90
54168;DHT22;40072;50.958;3.592;2023-02-26T03:09:44;3.60;99.90
54168;DHT22;40072;50.958;3.592;2023-02-26T03:12:10;3.60;99.90
54168;DHT22;40072;50.958;3.592;2023-02-26T03:14:37;3.70;99.90
54168;DHT22;40072;50.958;3.592;2023-02-26T03:23:04;3.60;99.90
54168;DHT22;40072;50.958;3.592;2023-02-26T03:28:35;3.40;99.90
54168;DHT22;40072;50.958;3.592;2023-02-26T03:33:57;3.20;99.90
54168;DHT22;40072;50.958;3.592;2023-02-26T03:42:03;2.90;99.90
54168;DHT22;40072;50.958;3.592;2023-02-26T03:44:37;3.00;99.90
54168;DHT22;40072;50.958;3.592;2023-02-26T03:47:07;3.00;99.90
54168;DHT22;40072;50.958;3.592;2023-02-26T03:49:49;3.10;99.90
54168;DHT22;40072;50.958;3.592;2023-02-26T03:52:21;3.00;99.90
54168;DHT22;40072;50.958;3.592;2023-02-26T03:54:54;3.10;99.90
54168;DHT22;40072;50.958;3.592;2023-02-26T03:57:22;3.10;99.90
54168;DHT22;40072;50.958;3.592;2023-02-26T03:59:47;3.10;99.90
54168;DHT22;40072;50.958;3.592;2023-02-26T04:02:21;3.20;99.90
54168;DHT22;40072;50.958;3.592;2023-02-26T04:04:56;3.10;99.90
54168;DHT22;40072;50.958;3.592;2023-02-26T04:07:23;3.00;99.90
54168;DHT22;40072;50.958;3.592;2023-02-26T04:09:50;2.90;99.90
54168;DHT22;40072;50.958;3.592;2023-02-26T04:12:21;2.80;99.90
54168;DHT22;40072;50.958;3.592;2023-02-26T04:14:48;2.90;99.90
54168;DHT22;40072;50.958;3.592;2023-02-26T04:17:13;2.90;99.90
54168;DHT22;40072;50.958;3.592;2023-02-26T04:19:39;2.80;99.90
54168;DHT22;40072;50.958;3.592;2023-02-26T04:22:04;2.80;99.90
54168;DHT22;40072;50.958;3.592;2023-02-26T04:24:30;2.70;99.90
54168;DHT22;40072;50.958;3.592;2023-02-26T04:26:56;2.70;99.90
54168;DHT22;40072;50.958;3.592;2023-02-26T04:29:21;2.50;99.90
54168;DHT22;40072;50.958;3.592;2023-02-26T04:31:47;2.60;99.90
54168;DHT22;40072;50.958;3.592;2023-02-26T04:34:13;2.50;99.90
54168;DHT22;40072;50.958;3.592;2023-02-26T04:36:39;2.40;99.90
54168;DHT22;40072;50.958;3.592;2023-02-26T04:39:05;2.40;99.90
54168;DHT22;40072;50.958;3.592;2023-02-26T04:41:30;2.40;99.90
54168;DHT22;40072;50.958;3.592;2023-02-26T04:43:56;2.40;99.90
54168;DHT22;40072;50.958;3.592;2023-02-26T04:46:22;2.30;99.90
54168;DHT22;40072;50.958;3.592;2023-02-26T04:48:47;2.30;99.90
54168;DHT22;40072;50.958;3.592;2023-02-26T04:51:13;2.20;99.90
54168;DHT22;40072;50.958;3.592;2023-02-26T04:53:39;2.30;99.90
54168;DHT22;40072;50.958;3.592;2023-02-26T04:56:04;2.20;99.90
54168;DHT22;40072;50.958;3.592;2023-02-26T04:58:32;2.10;99.90
54168;DHT22;40072;50.958;3.592;2023-02-26T05:00:57;2.10;99.90
54168;DHT22;40072;50.958;3.592;2023-02-26T05:03:23;2.20;99.90
54168;DHT22;40072;50.958;3.592;2023-02-26T05:05:49;2.10;99.90
54168;DHT22;40072;50.958;3.592;2023-02-26T05:08:14;2.10;99.90
54168;DHT22;40072;50.958;3.592;2023-02-26T05:10:40;2.10;99.90
54168;DHT22;40072;50.958;3.592;2023-02-26T05:13:06;2.20;99.90
54168;DHT22;40072;50.958;3.592;2023-02-26T05:15:32;2.10;99.90
54168;DHT22;40072;50.958;3.592;2023-02-26T05:17:57;2.20;99.90
54168;DHT22;40072;50.958;3.592;2023-02-26T05:20:23;2.00;99.90
54168;DHT22;40072;50.958;3.592;2023-02-26T05:22:49;2.00;99.90
54168;DHT22;40072;50.958;3.592;2023-02-26T05:25:15;2.10;99.90
54168;DHT22;40072;50.958;3.592;2023-02-26T05:27:41;2.00;99.90
54168;DHT22;40072;50.958;3.592;2023-02-26T05:30:10;2.00;99.90
54168;DHT22;40072;50.958;3.592;2023-02-26T05:32:36;2.00;99.90
54168;DHT22;40072;50.958;3.592;2023-02-26T05:35:02;2.00;99.90
54168;DHT22;40072;50.958;3.592;2023-02-26T05:37:28;1.90;99.90
54168;DHT22;40072;50.958;3.592;2023-02-26T05:39:54;2.00;99.90
54168;DHT22;40072;50.958;3.592;2023-02-26T05:42:20;1.90;99.90
54168;DHT22;40072;50.958;3.592;2023-02-26T05:44:45;1.80;99.90
54168;DHT22;40072;50.958;3.592;2023-02-26T05:47:11;1.80;99.90
54168;DHT22;40072;50.958;3.592;2023-02-26T05:49:37;1.80;99.90
54168;DHT22;40072;50.958;3.592;2023-02-26T05:52:03;1.90;99.90
54168;DHT22;40072;50.958;3.592;2023-02-26T05:54:29;1.90;99.90
54168;DHT22;40072;50.958;3.592;2023-02-26T05:56:54;2.00;99.90
54168;DHT22;40072;50.958;3.592;2023-02-26T05:59:20;1.90;99.90
54168;DHT22;40072;50.958;3.592;2023-02-26T06:01:46;1.80;99.90
54168;DHT22;40072;50.958;3.592;2023-02-26T06:04:11;1.80;99.90
54168;DHT22;40072;50.958;3.592;2023-02-26T06:06:37;1.80;99.90
54168;DHT22;40072;50.958;3.592;2023-02-26T06:09:03;1.70;99.90
54168;DHT22;40072;50.958;3.592;2023-02-26T06:11:29;1.70;99.90
54168;DHT22;40072;50.958;3.592;2023-02-26T06:13:55;1.80;99.90
54168;DHT22;40072;50.958;3.592;2023-02-26T06:16:21;1.70;99.90
54168;DHT22;40072;50.958;3.592;2023-02-26T06:18:47;1.70;99.90
54168;DHT22;40072;50.958;3.592;2023-02-26T06:21:13;1.60;99.90
54168;DHT22;40072;50.958;3.592;2023-02-26T06:23:39;1.60;99.90
54168;DHT22;40072;50.958;3.592;2023-02-26T06:26:04;1.70;99.90
54168;DHT22;40072;50.958;3.592;2023-02-26T06:28:31;1.60;99.90
54168;DHT22;40072;50.958;3.592;2023-02-26T06:30:56;1.50;99.90
54168;DHT22;40072;50.958;3.592;2023-02-26T06:33:22;1.50;99.90
54168;DHT22;40072;50.958;3.592;2023-02-26T06:35:48;1.60;99.90
54168;DHT22;40072;50.958;3.592;2023-02-26T06:38:15;1.60;99.90
54168;DHT22;40072;50.958;3.592;2023-02-26T06:40:40;1.50;99.90
54168;DHT22;40072;50.958;3.592;2023-02-26T06:43:06;1.50;99.90
54168;DHT22;40072;50.958;3.592;2023-02-26T06:45:32;1.30;99.90
54168;DHT22;40072;50.958;3.592;2023-02-26T06:47:58;1.30;99.90
54168;DHT22;40072;50.958;3.592;2023-02-26T06:50:23;1.30;99.90
54168;DHT22;40072;50.958;3.592;2023-02-26T06:52:49;1.40;99.90
54168;DHT22;40072;50.958;3.592;2023-02-26T06:55:15;1.30;99.90
54168;DHT22;40072;50.958;3.592;2023-02-26T06:57:41;1.40;99.90
54168;DHT22;40072;50.958;3.592;2023-02-26T07:00:08;1.50;99.90
54168;DHT22;40072;50.958;3.592;2023-02-26T07:02:34;1.40;99.90
54168;DHT22;40072;50.958;3.592;2023-02-26T07:04:59;1.50;99.90
54168;DHT22;40072;50.958;3.592;2023-02-26T07:07:25;1.50;99.90
54168;DHT22;40072;50.958;3.592;2023-02-26T07:09:51;1.60;99.90
54168;DHT22;40072;50.958;3.592;2023-02-26T07:12:17;1.60;99.90
54168;DHT22;40072;50.958;3.592;2023-02-26T07:14:42;1.60;99.90
54168;DHT22;40072;50.958;3.592;2023-02-26T07:17:10;1.50;99.90
54168;DHT22;40072;50.958;3.592;2023-02-26T07:19:45;1.50;99.90
54168;DHT22;40072;50.958;3.592;2023-02-26T07:22:11;1.50;99.90
54168;DHT22;40072;50.958;3.592;2023-02-26T07:24:36;1.60;99.90
54168;DHT22;40072;50.958;3.592;2023-02-26T07:27:02;1.60;99.90
54168;DHT22;40072;50.958;3.592;2023-02-26T07:29:28;1.70;99.90
54168;DHT22;40072;50.958;3.592;2023-02-26T07:31:53;1.90;99.90
54168;DHT22;40072;50.958;3.592;2023-02-26T07:34:19;1.90;99.90
54168;DHT22;40072;50.958;3.592;2023-02-26T07:36:45;1.90;99.90
54168;DHT22;40072;50.958;3.592;2023-02-26T07:39:11;1.90;99.90
54168;DHT22;40072;50.958;3.592;2023-02-26T07:41:36;1.90;99.90
54168;DHT22;40072;50.958;3.592;2023-02-26T07:44:02;2.10;99.90
54168;DHT22;40072;50.958;3.592;2023-02-26T07:46:28;3.00;99.90
54168;DHT22;40072;50.958;3.592;2023-02-26T07:48:54;3.30;99.90
54168;DHT22;40072;50.958;3.592;2023-02-26T07:51:19;3.10;99.90
54168;DHT22;40072;50.958;3.592;2023-02-26T07:53:45;3.40;99.90
54168;DHT22;40072;50.958;3.592;2023-02-26T07:56:11;3.50;99.90
54168;DHT22;40072;50.958;3.592;2023-02-26T07:58:36;3.60;99.90
54168;DHT22;40072;50.958;3.592;2023-02-26T08:01:02;3.40;99.90
54168;DHT22;40072;50.958;3.592;2023-02-26T08:03:28;3.40;99.90
54168;DHT22;40072;50.958;3.592;2023-02-26T08:05:53;3.40;99.90
54168;DHT22;40072;50.958;3.592;2023-02-26T08:08:19;3.70;99.90
54168;DHT22;40072;50.958;3.592;2023-02-26T08:10:45;3.90;99.80
54168;DHT22;40072;50.958;3.592;2023-02-26T08:13:10;3.50;99.40
54168;DHT22;40072;50.958;3.592;2023-02-26T08:15:36;3.70;99.50
54168;DHT22;40072;50.958;3.592;2023-02-26T08:18:02;3.70;99.60
54168;DHT22;40072;50.958;3.592;2023-02-26T08:20:28;3.20;99.90
54168;DHT22;40072;50.958;3.592;2023-02-26T08:22:53;3.20;99.80
54168;DHT22;40072;50.958;3.592;2023-02-26T08:25:19;4.00;98.20
54168;DHT22;40072;50.958;3.592;2023-02-26T08:27:45;4.00;98.50
54168;DHT22;40072;50.958;3.592;2023-02-26T08:30:11;4.50;98.40
54168;DHT22;40072;50.958;3.592;2023-02-26T08:32:37;4.80;97.60
54168;DHT22;40072;50.958;3.592;2023-02-26T08:35:05;4.40;97.80
54168;DHT22;40072;50.958;3.592;2023-02-26T08:37:30;4.00;98.40
54168;DHT22;40072;50.958;3.592;2023-02-26T08:39:56;3.90;98.50
54168;DHT22;40072;50.958;3.592;2023-02-26T08:42:22;3.80;97.40
54168;DHT22;40072;50.958;3.592;2023-02-26T08:44:48;3.90;97.70
54168;DHT22;40072;50.958;3.592;2023-02-26T08:47:14;4.70;96.80
54168;DHT22;40072;50.958;3.592;2023-02-26T08:49:39;5.50;95.90
54168;DHT22;40072;50.958;3.592;2023-02-26T08:52:05;5.20;95.40
54168;DHT22;40072;50.958;3.592;2023-02-26T08:54:31;5.00;95.50
54168;DHT22;40072;50.958;3.592;2023-02-26T08:56:57;5.30;94.70
54168;DHT22;40072;50.958;3.592;2023-02-26T08:59:25;5.70;94.70
54168;DHT22;40072;50.958;3.592;2023-02-26T09:01:51;5.20;93.80
54168;DHT22;40072;50.958;3.592;2023-02-26T09:04:17;4.90;94.80
54168;DHT22;40072;50.958;3.592;2023-02-26T09:06:43;5.30;94.60
54168;DHT22;40072;50.958;3.592;2023-02-26T09:09:09;5.30;94.50
54168;DHT22;40072;50.958;3.592;2023-02-26T09:11:35;5.20;95.40
54168;DHT22;40072;50.958;3.592;2023-02-26T09:14:01;5.10;93.90
54168;DHT22;40072;50.958;3.592;2023-02-26T09:16:28;5.10;94.70
54168;DHT22;40072;50.958;3.592;2023-02-26T09:18:54;5.20;94.00
54168;DHT22;40072;50.958;3.592;2023-02-26T09:21:21;5.50;94.00
54168;DHT22;40072;50.958;3.592;2023-02-26T09:23:46;5.90;93.20
54168;DHT22;40072;50.958;3.592;2023-02-26T09:26:12;6.20;92.70
54168;DHT22;40072;50.958;3.592;2023-02-26T09:28:38;5.90;92.30
54168;DHT22;40072;50.958;3.592;2023-02-26T09:31:04;5.60;91.50
54168;DHT22;40072;50.958;3.592;2023-02-26T09:33:31;4.90;93.80
54168;DHT22;40072;50.958;3.592;2023-02-26T09:35:57;5.00;92.80
54168;DHT22;40072;50.958;3.592;2023-02-26T09:38:23;5.00;93.10
54168;DHT22;40072;50.958;3.592;2023-02-26T09:40:57;5.30;93.20
54168;DHT22;40072;50.958;3.592;2023-02-26T09:46:47;4.90;92.50
54168;DHT22;40072;50.958;3.592;2023-02-26T09:52:08;5.90;91.40
54168;DHT22;40072;50.958;3.592;2023-02-26T09:54:43;5.10;91.50
54168;DHT22;40072;50.958;3.592;2023-02-26T09:57:17;4.90;91.70
54168;DHT22;40072;50.958;3.592;2023-02-26T09:59:44;5.60;92.40
54168;DHT22;40072;50.958;3.592;2023-02-26T10:05:19;5.60;92.40
54168;DHT22;40072;50.958;3.592;2023-02-26T10:08:06;6.60;91.50
54168;DHT22;40072;50.958;3.592;2023-02-26T10:10:42;6.00;91.20
54168;DHT22;40072;50.958;3.592;2023-02-26T10:13:28;6.20;91.50
54168;DHT22;40072;50.958;3.592;2023-02-26T10:16:04;6.90;91.20
54168;DHT22;40072;50.958;3.592;2023-02-26T10:18:35;6.90;91.90
54168;DHT22;40072;50.958;3.592;2023-02-26T10:21:10;7.20;90.20
54168;DHT22;40072;50.958;3.592;2023-02-26T10:23:40;6.50;90.00
54168;DHT22;40072;50.958;3.592;2023-02-26T10:26:36;5.50;90.90
54168;DHT22;40072;50.958;3.592;2023-02-26T10:29:18;5.90;90.60
54168;DHT22;40072;50.958;3.592;2023-02-26T10:32:00;6.00;90.90
54168;DHT22;40072;50.958;3.592;2023-02-26T10:34:42;6.80;90.80
54168;DHT22;40072;50.958;3.592;2023-02-26T10:37:48;6.00;90.80
54168;DHT22;40072;50.958;3.592;2023-02-26T10:40:57;6.50;91.50
54168;DHT22;40072;50.958;3.592;2023-02-26T10:43:23;6.50;90.70
54168;DHT22;40072;50.958;3.592;2023-02-26T10:51:16;8.40;85.00
54168;DHT22;40072;50.958;3.592;2023-02-26T10:53:52;6.50;89.40
54168;DHT22;40072;50.958;3.592;2023-02-26T10:56:23;6.50;90.40
54168;DHT22;40072;50.958;3.592;2023-02-26T10:58:50;6.10;90.00
54168;DHT22;40072;50.958;3.592;2023-02-26T11:01:20;6.10;90.00
54168;DHT22;40072;50.958;3.592;2023-02-26T11:03:48;6.20;90.50
54168;DHT22;40072;50.958;3.592;2023-02-26T11:06:32;6.60;90.60
54168;DHT22;40072;50.958;3.592;2023-02-26T11:09:00;6.50;89.50
54168;DHT22;40072;50.958;3.592;2023-02-26T11:11:40;6.90;86.90
54168;DHT22;40072;50.958;3.592;2023-02-26T11:14:07;6.70;88.40
54168;DHT22;40072;50.958;3.592;2023-02-26T11:16:35;7.40;86.60
54168;DHT22;40072;50.958;3.592;2023-02-26T11:19:06;7.00;86.80
54168;DHT22;40072;50.958;3.592;2023-02-26T11:21:37;7.30;86.10
54168;DHT22;40072;50.958;3.592;2023-02-26T11:24:07;7.00;88.40
54168;DHT22;40072;50.958;3.592;2023-02-26T11:26:35;7.50;88.60
54168;DHT22;40072;50.958;3.592;2023-02-26T11:29:02;8.30;86.80
54168;DHT22;40072;50.958;3.592;2023-02-26T11:31:28;7.70;85.40
54168;DHT22;40072;50.958;3.592;2023-02-26T11:34:07;7.80;86.50
54168;DHT22;40072;50.958;3.592;2023-02-26T11:36:37;8.00;86.50
54168;DHT22;40072;50.958;3.592;2023-02-26T11:39:07;7.50;85.10
54168;DHT22;40072;50.958;3.592;2023-02-26T11:41:37;7.30;85.70
54168;DHT22;40072;50.958;3.592;2023-02-26T11:44:15;7.40;84.80
54168;DHT22;40072;50.958;3.592;2023-02-26T11:46:48;8.60;82.60
54168;DHT22;40072;50.958;3.592;2023-02-26T11:49:16;7.00;82.90
54168;DHT22;40072;50.958;3.592;2023-02-26T11:51:45;7.10;85.20
54168;DHT22;40072;50.958;3.592;2023-02-26T11:54:23;6.90;85.70
54168;DHT22;40072;50.958;3.592;2023-02-26T11:56:49;7.60;84.10
54168;DHT22;40072;50.958;3.592;2023-02-26T11:59:22;7.20;85.20
54168;DHT22;40072;50.958;3.592;2023-02-26T12:01:49;7.30;84.80
54168;DHT22;40072;50.958;3.592;2023-02-26T12:04:24;7.60;82.50
54168;DHT22;40072;50.958;3.592;2023-02-26T12:06:52;8.10;82.40
54168;DHT22;40072;50.958;3.592;2023-02-26T12:09:19;7.90;84.30
54168;DHT22;40072;50.958;3.592;2023-02-26T12:12:17;7.80;82.20
54168;DHT22;40072;50.958;3.592;2023-02-26T12:38:47;7.70;81.60
54168;DHT22;40072;50.958;3.592;2023-02-26T12:43:51;7.40;82.00
54168;DHT22;40072;50.958;3.592;2023-02-26T12:46:33;7.60;81.90
54168;DHT22;40072;50.958;3.592;2023-02-26T12:54:55;7.70;82.30
54168;DHT22;40072;50.958;3.592;2023-02-26T12:57:53;9.20;80.90
54168;DHT22;40072;50.958;3.592;2023-02-26T13:08:36;8.10;79.40
54168;DHT22;40072;50.958;3.592;2023-02-26T13:11:34;7.40;80.40
54168;DHT22;40072;50.958;3.592;2023-02-26T13:16:51;8.40;79.20
54168;DHT22;40072;50.958;3.592;2023-02-26T13:19:31;9.20;77.20
54168;DHT22;40072;50.958;3.592;2023-02-26T13:22:11;7.90;78.50
54168;DHT22;40072;50.958;3.592;2023-02-26T13:24:43;7.70;80.10
54168;DHT22;40072;50.958;3.592;2023-02-26T13:27:14;7.80;78.40
54168;DHT22;40072;50.958;3.592;2023-02-26T13:29:48;7.50;79.70
54168;DHT22;40072;50.958;3.592;2023-02-26T13:32:20;7.10;80.40
54168;DHT22;40072;50.958;3.592;2023-02-26T13:35:00;7.40;81.50
54168;DHT22;40072;50.958;3.592;2023-02-26T13:37:37;8.60;81.00
54168;DHT22;40072;50.958;3.592;2023-02-26T13:42:45;8.10;79.40
54168;DHT22;40072;50.958;3.592;2023-02-26T13:48:00;7.50;80.60
54168;DHT22;40072;50.958;3.592;2023-02-26T13:55:46;6.90;82.90
54168;DHT22;40072;50.958;3.592;2023-02-26T13:58:26;7.10;84.40
54168;DHT22;40072;50.958;3.592;2023-02-26T14:01:08;8.00;82.50
54168;DHT22;40072;50.958;3.592;2023-02-26T14:08:54;9.30;80.70
54168;DHT22;40072;50.958;3.592;2023-02-26T14:19:41;7.80;84.00
54168;DHT22;40072;50.958;3.592;2023-02-26T14:34:28;10.00;79.90
54168;DHT22;40072;50.958;3.592;2023-02-26T14:36:47;8.90;80.50
54168;DHT22;40072;50.958;3.592;2023-02-26T14:39:44;8.30;83.60
54168;DHT22;40072;50.958;3.592;2023-02-26T14:42:32;8.40;83.30
54168;DHT22;40072;50.958;3.592;2023-02-26T14:47:43;10.60;80.80
54168;DHT22;40072;50.958;3.592;2023-02-26T14:50:21;9.50;79.00
54168;DHT22;40072;50.958;3.592;2023-02-26T14:53:15;8.10;82.60
54168;DHT22;40072;50.958;3.592;2023-02-26T15:01:48;8.00;85.30
54168;DHT22;40072;50.958;3.592;2023-02-26T15:04:19;8.90;83.00
54168;DHT22;40072;50.958;3.592;2023-02-26T15:18:36;9.10;82.30
54168;DHT22;40072;50.958;3.592;2023-02-26T15:23:57;8.60;82.90
54168;DHT22;40072;50.958;3.592;2023-02-26T15:26:33;8.50;83.10
54168;DHT22;40072;50.958;3.592;2023-02-26T15:29:03;9.20;82.30
54168;DHT22;40072;50.958;3.592;2023-02-26T15:31:35;9.10;81.10
54168;DHT22;40072;50.958;3.592;2023-02-26T15:34:02;8.90;81.00
54168;DHT22;40072;50.958;3.592;2023-02-26T15:36:30;8.70;81.90
54168;DHT22;40072;50.958;3.592;2023-02-26T15:39:00;8.50;81.60
54168;DHT22;40072;50.958;3.592;2023-02-26T15:41:29;8.10;83.00
54168;DHT22;40072;50.958;3.592;2023-02-26T15:44:04;7.80;84.30
54168;DHT22;40072;50.958;3.592;2023-02-26T15:46:34;7.20;86.10
54168;DHT22;40072;50.958;3.592;2023-02-26T15:49:32;6.90;88.00
54168;DHT22;40072;50.958;3.592;2023-02-26T15:51:59;7.40;87.70
54168;DHT22;40072;50.958;3.592;2023-02-26T15:54:32;7.90;87.70
54168;DHT22;40072;50.958;3.592;2023-02-26T15:57:00;8.40;86.50
54168;DHT22;40072;50.958;3.592;2023-02-26T15:59:28;8.60;86.30
54168;DHT22;40072;50.958;3.592;2023-02-26T16:01:55;8.10;86.30
54168;DHT22;40072;50.958;3.592;2023-02-26T16:04:22;7.90;86.80
54168;DHT22;40072;50.958;3.592;2023-02-26T16:06:54;7.90;87.10
54168;DHT22;40072;50.958;3.592;2023-02-26T16:09:27;7.10;88.20
54168;DHT22;40072;50.958;3.592;2023-02-26T16:11:56;6.90;88.70
54168;DHT22;40072;50.958;3.592;2023-02-26T16:14:38;7.10;89.70
54168;DHT22;40072;50.958;3.592;2023-02-26T16:17:07;6.90;89.30
54168;DHT22;40072;50.958;3.592;2023-02-26T16:19:40;6.70;90.60
54168;DHT22;40072;50.958;3.592;2023-02-26T16:27:32;6.90;90.20
54168;DHT22;40072;50.958;3.592;2023-02-26T16:30:00;7.20;90.20
54168;DHT22;40072;50.958;3.592;2023-02-26T16:32:29;6.90;90.10
54168;DHT22;40072;50.958;3.592;2023-02-26T16:34:58;6.80;90.30
54168;DHT22;40072;50.958;3.592;2023-02-26T16:40:25;6.50;90.40
54168;DHT22;40072;50.958;3.592;2023-02-26T16:43:28;6.40;90.70
54168;DHT22;40072;50.958;3.592;2023-02-26T16:45:53;6.20;91.20
54168;DHT22;40072;50.958;3.592;2023-02-26T16:48:35;6.10;91.30
54168;DHT22;40072;50.958;3.592;2023-02-26T16:51:09;6.20;91.50
54168;DHT22;40072;50.958;3.592;2023-02-26T16:56:16;5.70;91.80
54168;DHT22;40072;50.958;3.592;2023-02-26T16:58:49;5.70;92.30
54168;DHT22;40072;50.958;3.592;2023-02-26T17:01:20;5.70;92.50
54168;DHT22;40072;50.958;3.592;2023-02-26T17:03:49;5.70;92.50
54168;DHT22;40072;50.958;3.592;2023-02-26T17:06:21;5.70;92.90
54168;DHT22;40072;50.958;3.592;2023-02-26T17:08:51;5.70;93.40
54168;DHT22;40072;50.958;3.592;2023-02-26T17:11:29;5.50;93.90
54168;DHT22;40072;50.958;3.592;2023-02-26T17:14:14;5.30;94.50
54168;DHT22;40072;50.958;3.592;2023-02-26T17:16:44;5.20;94.90
54168;DHT22;40072;50.958;3.592;2023-02-26T17:19:10;5.10;95.30
54168;DHT22;40072;50.958;3.592;2023-02-26T17:21:52;5.00;95.70
54168;DHT22;40072;50.958;3.592;2023-02-26T17:24:22;5.00;96.00
54168;DHT22;40072;50.958;3.592;2023-02-26T17:26:48;5.00;96.20
54168;DHT22;40072;50.958;3.592;2023-02-26T17:29:21;4.90;96.40
54168;DHT22;40072;50.958;3.592;2023-02-26T17:31:49;4.80;96.60
54168;DHT22;40072;50.958;3.592;2023-02-26T17:34:17;4.80;96.80
54168;DHT22;40072;50.958;3.592;2023-02-26T17:36:44;4.80;97.00
54168;DHT22;40072;50.958;3.592;2023-02-26T17:39:13;4.80;97.20
54168;DHT22;40072;50.958;3.592;2023-02-26T17:41:42;4.80;97.30
54168;DHT22;40072;50.958;3.592;2023-02-26T17:44:08;4.70;97.60
54168;DHT22;40072;50.958;3.592;2023-02-26T17:46:34;4.70;97.50
54168;DHT22;40072;50.958;3.592;2023-02-26T17:49:00;4.70;97.80
54168;DHT22;40072;50.958;3.592;2023-02-26T17:51:26;4.70;97.90
54168;DHT22;40072;50.958;3.592;2023-02-26T17:53:52;4.60;98.10
54168;DHT22;40072;50.958;3.592;2023-02-26T17:56:24;4.70;98.30
54168;DHT22;40072;50.958;3.592;2023-02-26T17:58:54;4.50;98.50
54168;DHT22;40072;50.958;3.592;2023-02-26T18:01:20;4.50;98.50
54168;DHT22;40072;50.958;3.592;2023-02-26T18:03:48;4.50;98.60
54168;DHT22;40072;50.958;3.592;2023-02-26T18:06:14;4.50;98.70
54168;DHT22;40072;50.958;3.592;2023-02-26T18:08:41;4.50;98.70
54168;DHT22;40072;50.958;3.592;2023-02-26T18:11:08;4.60;98.70
54168;DHT22;40072;50.958;3.592;2023-02-26T18:13:36;4.60;98.70
54168;DHT22;40072;50.958;3.592;2023-02-26T18:16:02;4.50;98.80
54168;DHT22;40072;50.958;3.592;2023-02-26T18:18:29;4.50;98.90
54168;DHT22;40072;50.958;3.592;2023-02-26T18:20:55;4.50;99.00
54168;DHT22;40072;50.958;3.592;2023-02-26T18:23:20;4.50;99.10
54168;DHT22;40072;50.958;3.592;2023-02-26T18:25:48;4.40;99.10
54168;DHT22;40072;50.958;3.592;2023-02-26T18:28:18;4.40;99.30
54168;DHT22;40072;50.958;3.592;2023-02-26T18:30:45;4.40;99.50
54168;DHT22;40072;50.958;3.592;2023-02-26T18:33:11;4.40;99.50
54168;DHT22;40072;50.958;3.592;2023-02-26T18:35:38;4.30;99.60
54168;DHT22;40072;50.958;3.592;2023-02-26T18:38:11;4.30;99.90
54168;DHT22;40072;50.958;3.592;2023-02-26T18:40:37;4.30;99.90
54168;DHT22;40072;50.958;3.592;2023-02-26T18:43:04;4.30;99.90
54168;DHT22;40072;50.958;3.592;2023-02-26T18:45:29;4.20;99.90
54168;DHT22;40072;50.958;3.592;2023-02-26T18:47:55;4.20;99.90
54168;DHT22;40072;50.958;3.592;2023-02-26T18:50:21;4.20;99.90
54168;DHT22;40072;50.958;3.592;2023-02-26T18:52:47;4.30;99.90
54168;DHT22;40072;50.958;3.592;2023-02-26T18:55:13;4.20;99.90
54168;DHT22;40072;50.958;3.592;2023-02-26T18:57:40;4.20;99.90
54168;DHT22;40072;50.958;3.592;2023-02-26T19:00:08;4.20;99.90